createdAt,value
2018-06-17T00:01:14.615Z,2.10
2018-06-17T00:03:42.808Z,2.30
2018-06-17T00:06:10.755Z,2.07
2018-06-17T00:08:38.912Z,2.87
2018-06-17T00:11:07.151Z,2.33
2018-06-17T00:13:35.336Z,2.20
2018-06-17T00:16:03.517Z,2.30
2018-06-17T00:18:31.712Z,1.90
2018-06-17T00:20:59.881Z,2.40
2018-06-17T00:23:28.069Z,2.40
2018-06-17T00:25:56.235Z,2.13
2018-06-17T00:28:24.409Z,2.00
2018-06-17T00:30:52.600Z,2.00
2018-06-17T00:33:20.763Z,2.30
2018-06-17T00:35:48.954Z,2.47
2018-06-17T00:38:17.147Z,2.70
2018-06-17T00:40:45.349Z,1.80
2018-06-17T00:43:13.740Z,2.30
2018-06-17T00:45:41.908Z,2.50
2018-06-17T00:48:10.084Z,2.53
2018-06-17T00:50:38.245Z,2.47
2018-06-17T00:53:06.442Z,2.63
2018-06-17T00:55:34.616Z,2.20
2018-06-17T00:58:02.804Z,2.80
2018-06-17T01:00:30.994Z,2.63
2018-06-17T01:02:59.158Z,2.30
2018-06-17T01:05:27.345Z,2.33
2018-06-17T01:07:55.286Z,3.00
2018-06-17T01:10:23.537Z,2.97
2018-06-17T01:12:51.722Z,2.33
2018-06-17T01:15:19.880Z,2.70
2018-06-17T01:17:48.063Z,2.50
2018-06-17T01:20:16.298Z,2.87
2018-06-17T01:22:44.244Z,2.70
2018-06-17T01:25:12.425Z,2.97
2018-06-17T01:27:40.603Z,2.43
2018-06-17T01:30:08.554Z,2.30
2018-06-17T01:32:36.732Z,2.50
2018-06-17T01:35:04.966Z,3.90
2018-06-17T01:37:33.120Z,2.40
2018-06-17T01:40:01.294Z,2.43
2018-06-17T01:42:29.464Z,2.80
2018-06-17T01:44:57.751Z,2.20
2018-06-17T01:47:25.951Z,2.40
2018-06-17T01:49:54.217Z,2.90
2018-06-17T01:52:22.401Z,3.03
2018-06-17T01:54:50.608Z,2.60
2018-06-17T01:57:18.799Z,2.53
2018-06-17T01:59:46.975Z,3.20
2018-06-17T02:02:15.151Z,2.83
2018-06-17T02:04:48.716Z,3.13
2018-06-17T02:07:22.269Z,3.50
2018-06-17T02:09:55.898Z,3.30
2018-06-17T02:12:24.071Z,4.10
2018-06-17T02:14:55.248Z,3.63
2018-06-17T02:17:24.084Z,3.23
2018-06-17T02:19:53.036Z,3.43
2018-06-17T02:22:20.987Z,4.27
2018-06-17T02:24:49.173Z,3.47
2018-06-17T02:27:17.238Z,4.00
2018-06-17T02:29:45.175Z,3.80
2018-06-17T02:32:13.404Z,4.50
2018-06-17T02:34:41.601Z,5.67
2018-06-17T02:37:10.265Z,5.37
2018-06-17T02:39:38.438Z,4.63
2018-06-17T02:42:07.227Z,4.90
2018-06-17T02:44:35.424Z,5.73
2018-06-17T02:47:08.995Z,6.63
2018-06-17T02:49:39.530Z,5.70
2018-06-17T02:52:13.841Z,4.80
2018-06-17T02:54:44.262Z,5.37
2018-06-17T02:57:14.616Z,5.97
2018-06-17T02:59:43.452Z,5.27
2018-06-17T03:02:12.063Z,5.90
2018-06-17T03:04:40.269Z,5.40
2018-06-17T03:07:08.445Z,7.00
2018-06-17T03:09:36.631Z,4.93
2018-06-17T03:12:04.883Z,6.47
2018-06-17T03:14:33.072Z,6.40
2018-06-17T03:17:01.243Z,7.00
2018-06-17T03:19:29.411Z,6.17
2018-06-17T03:21:57.596Z,5.33
2018-06-17T03:24:31.325Z,6.63
2018-06-17T03:27:04.810Z,7.00
2018-06-17T03:29:38.467Z,5.83
2018-06-17T03:32:12.035Z,5.30
2018-06-17T03:34:40.581Z,7.20
2018-06-17T03:37:08.768Z,7.90
2018-06-17T03:39:36.960Z,7.23
2018-06-17T03:42:05.131Z,8.10
2018-06-17T03:44:33.324Z,7.93
2018-06-17T03:47:01.265Z,6.80
2018-06-17T03:49:29.444Z,7.30
2018-06-17T03:51:57.618Z,7.80
2018-06-17T03:54:25.835Z,7.60
2018-06-17T03:56:54.015Z,7.87
2018-06-17T03:59:22.186Z,7.20
2018-06-17T04:01:50.376Z,7.93
2018-06-17T04:04:18.600Z,8.53
2018-06-17T04:06:46.538Z,7.60
2018-06-17T04:09:14.708Z,8.57
2018-06-17T04:11:42.899Z,8.17
2018-06-17T04:14:11.087Z,8.43
2018-06-17T04:16:39.260Z,6.83
2018-06-17T04:19:07.485Z,7.87
2018-06-17T04:21:35.691Z,7.10
2018-06-17T04:24:03.899Z,9.07
2018-06-17T04:26:32.171Z,7.90
2018-06-17T04:29:00.370Z,7.23
2018-06-17T04:31:28.546Z,6.37
2018-06-17T04:33:56.740Z,6.13
2018-06-17T04:36:24.899Z,5.50
2018-06-17T04:38:53.080Z,5.83
2018-06-17T04:41:21.255Z,7.87
2018-06-17T04:43:49.437Z,5.33
2018-06-17T04:46:17.668Z,5.57
2018-06-17T04:48:45.604Z,4.87
2018-06-17T04:51:13.774Z,5.40
2018-06-17T04:53:41.955Z,4.07
2018-06-17T04:56:10.152Z,4.67
2018-06-17T04:58:38.362Z,4.83
2018-06-17T05:01:06.593Z,5.37
2018-06-17T05:03:34.540Z,5.57
2018-06-17T05:06:02.696Z,4.23
2018-06-17T05:08:30.943Z,3.90
2018-06-17T05:10:59.101Z,5.20
2018-06-17T05:13:27.285Z,4.97
2018-06-17T05:15:55.467Z,4.37
2018-06-17T05:18:23.649Z,5.10
2018-06-17T05:20:51.835Z,4.10
2018-06-17T05:23:20.011Z,4.33
2018-06-17T05:25:48.173Z,4.00
2018-06-17T05:28:16.453Z,4.87
2018-06-17T05:30:44.676Z,4.20
2018-06-17T05:33:12.602Z,4.07
2018-06-17T05:35:40.779Z,4.07
2018-06-17T05:38:08.972Z,4.27
2018-06-17T05:40:37.157Z,3.60
2018-06-17T05:43:05.427Z,3.80
2018-06-17T05:45:33.711Z,3.70
2018-06-17T05:48:01.675Z,4.07
2018-06-17T05:50:29.859Z,3.73
2018-06-17T05:52:58.154Z,3.30
2018-06-17T05:55:26.344Z,4.00
2018-06-17T05:57:54.520Z,3.17
2018-06-17T06:00:22.719Z,3.67
2018-06-17T06:02:50.947Z,2.50
2018-06-17T06:05:19.140Z,2.73
2018-06-17T06:07:47.336Z,2.57
2018-06-17T06:10:15.540Z,2.70
2018-06-17T06:12:43.723Z,2.93
2018-06-17T06:15:11.650Z,3.50
2018-06-17T06:17:39.835Z,2.37
2018-06-17T06:20:09.039Z,2.30
2018-06-17T06:22:37.287Z,2.57
2018-06-17T06:25:05.529Z,2.03
2018-06-17T06:27:33.763Z,2.63
2018-06-17T06:30:01.993Z,3.10
2018-06-17T06:32:30.344Z,2.20
2018-06-17T06:34:58.831Z,2.80
2018-06-17T06:37:27.028Z,3.03
2018-06-17T06:39:55.401Z,2.77
2018-06-17T06:42:23.627Z,2.83
2018-06-17T06:44:51.836Z,2.70
2018-06-17T06:47:20.142Z,2.60
2018-06-17T06:49:48.393Z,2.20
2018-06-17T06:52:16.622Z,2.77
2018-06-17T06:54:44.852Z,3.03
2018-06-17T06:57:13.089Z,2.70
2018-06-17T06:59:41.272Z,2.37
2018-06-17T07:02:14.855Z,2.20
2018-06-17T07:04:54.524Z,2.50
2018-06-17T07:07:27.926Z,2.83
2018-06-17T07:10:07.662Z,2.13
2018-06-17T07:12:35.824Z,2.73
2018-06-17T07:15:03.796Z,2.67
2018-06-17T07:17:37.398Z,3.60
2018-06-17T07:20:05.344Z,1.80
2018-06-17T07:22:33.577Z,2.50
2018-06-17T07:25:01.760Z,2.30
2018-06-17T07:27:41.177Z,2.80
2018-06-17T07:30:09.354Z,3.03
2018-06-17T07:32:37.590Z,1.73
2018-06-17T07:35:05.707Z,2.17
2018-06-17T07:37:33.891Z,2.20
2018-06-17T07:40:20.065Z,2.70
2018-06-17T07:42:49.561Z,1.63
2018-06-17T07:45:17.759Z,2.43
2018-06-17T07:47:45.929Z,2.50
2018-06-17T07:50:25.542Z,2.67
2018-06-17T07:53:05.622Z,3.50
2018-06-17T07:55:33.880Z,2.80
2018-06-17T07:58:02.364Z,2.00
2018-06-17T08:00:31.051Z,2.33
2018-06-17T08:02:59.259Z,2.53
2018-06-17T08:05:27.431Z,2.20
2018-06-17T08:07:55.611Z,2.00
2018-06-17T08:10:23.800Z,2.00
2018-06-17T08:12:51.975Z,2.77
2018-06-17T08:15:20.159Z,1.90
2018-06-17T08:17:48.344Z,3.00
2018-06-17T08:20:16.328Z,2.17
2018-06-17T08:22:44.541Z,2.10
2018-06-17T08:25:12.720Z,2.60
2018-06-17T08:27:40.919Z,2.50
2018-06-17T08:30:09.120Z,2.60
2018-06-17T08:32:37.340Z,2.50
2018-06-17T08:35:05.545Z,2.90
2018-06-17T08:37:33.723Z,2.40
2018-06-17T08:40:01.924Z,2.70
2018-06-17T08:42:30.088Z,2.70
2018-06-17T08:44:58.298Z,2.90
2018-06-17T08:47:26.524Z,2.33
2018-06-17T08:49:54.505Z,3.40
2018-06-17T08:52:22.676Z,2.97
2018-06-17T08:54:50.615Z,2.73
2018-06-17T08:57:18.797Z,2.30
2018-06-17T08:59:46.973Z,2.33
2018-06-17T09:02:15.144Z,2.53
2018-06-17T09:04:43.354Z,3.00
2018-06-17T09:07:11.524Z,2.73
2018-06-17T09:09:39.720Z,2.53
2018-06-17T09:12:07.959Z,2.90
2018-06-17T09:14:36.140Z,2.30
2018-06-17T09:17:04.347Z,2.40
2018-06-17T09:19:32.531Z,2.63
2018-06-17T09:22:00.723Z,2.80
2018-06-17T09:24:28.905Z,3.00
2018-06-17T09:26:57.115Z,2.20
2018-06-17T09:29:25.276Z,2.63
2018-06-17T09:31:53.527Z,2.30
2018-06-17T09:34:21.644Z,2.50
2018-06-17T09:36:49.835Z,2.10
2018-06-17T09:39:18.049Z,3.10
2018-06-17T09:41:46.232Z,2.73
2018-06-17T09:44:14.181Z,1.83
2018-06-17T09:46:42.376Z,2.27
2018-06-17T09:49:10.315Z,2.47
2018-06-17T09:51:38.497Z,1.97
2018-06-17T09:54:06.693Z,2.90
2018-06-17T09:56:35.480Z,2.13
2018-06-17T09:59:03.436Z,1.83
2018-06-17T10:01:31.638Z,2.10
2018-06-17T10:03:59.777Z,2.30
2018-06-17T10:06:27.972Z,2.00
2018-06-17T10:08:56.196Z,2.20
2018-06-17T10:11:24.311Z,2.40
2018-06-17T10:13:52.508Z,2.60
2018-06-17T10:16:20.444Z,2.37
2018-06-17T10:18:48.635Z,2.47
2018-06-17T10:21:16.874Z,2.30
2018-06-17T10:23:45.045Z,2.20
2018-06-17T10:26:13.242Z,2.40
2018-06-17T10:28:41.416Z,2.20
2018-06-17T10:31:09.580Z,2.33
2018-06-17T10:33:37.775Z,2.50
2018-06-17T10:36:06.053Z,1.83
2018-06-17T10:38:34.392Z,2.50
2018-06-17T10:41:02.605Z,2.30
2018-06-17T10:43:31.689Z,1.87
2018-06-17T10:45:59.877Z,2.90
2018-06-17T10:48:27.803Z,2.03
2018-06-17T10:50:55.995Z,1.50
2018-06-17T10:53:24.176Z,2.43
2018-06-17T10:55:52.620Z,2.30
2018-06-17T10:58:20.688Z,2.97
2018-06-17T11:00:48.877Z,2.67
2018-06-17T11:03:17.064Z,2.23
2018-06-17T11:05:45.251Z,2.10
2018-06-17T11:08:13.443Z,3.10
2018-06-17T11:10:41.628Z,2.00
2018-06-17T11:13:09.841Z,2.20
2018-06-17T11:15:38.011Z,2.23
2018-06-17T11:18:06.196Z,2.40
2018-06-17T11:20:34.377Z,2.27
2018-06-17T11:23:02.580Z,2.70
2018-06-17T11:25:30.748Z,2.47
2018-06-17T11:27:58.668Z,2.00
2018-06-17T11:30:26.843Z,2.00
2018-06-17T11:32:55.048Z,2.63
2018-06-17T11:35:23.247Z,2.30
2018-06-17T11:37:51.212Z,2.50
2018-06-17T11:40:19.164Z,2.77
2018-06-17T11:42:47.364Z,2.33
2018-06-17T11:45:15.545Z,1.63
2018-06-17T11:47:43.744Z,2.83
2018-06-17T11:50:11.912Z,2.40
2018-06-17T11:52:40.171Z,2.50
2018-06-17T11:55:08.340Z,2.10
2018-06-17T11:57:36.531Z,2.40
2018-06-17T12:00:05.316Z,1.80
2018-06-17T12:02:33.495Z,2.30
2018-06-17T12:05:01.664Z,1.97
2018-06-17T12:07:29.866Z,2.70
2018-06-17T12:09:58.037Z,2.43
2018-06-17T12:12:26.234Z,1.80
2018-06-17T12:14:54.464Z,1.77
2018-06-17T12:17:22.651Z,1.60
2018-06-17T12:19:50.870Z,2.13
2018-06-17T12:22:19.049Z,1.87
2018-06-17T12:24:47.001Z,2.20
2018-06-17T12:27:15.181Z,2.17
2018-06-17T12:29:43.349Z,2.33
2018-06-17T12:32:11.535Z,2.30
2018-06-17T12:34:39.472Z,2.10
2018-06-17T12:37:07.658Z,2.33
2018-06-17T12:39:35.820Z,2.40
2018-06-17T12:42:04.024Z,2.50
2018-06-17T12:44:31.951Z,1.90
2018-06-17T12:47:00.141Z,1.90
2018-06-17T12:49:28.313Z,2.00
2018-06-17T12:51:56.485Z,2.10
2018-06-17T12:54:24.668Z,2.07
2018-06-17T12:56:52.848Z,2.10
2018-06-17T12:59:21.012Z,2.33
2018-06-17T13:01:49.194Z,2.00
2018-06-17T13:04:17.391Z,1.90
2018-06-17T13:06:45.335Z,2.33
2018-06-17T13:09:13.511Z,1.80
2018-06-17T13:11:41.684Z,2.17
2018-06-17T13:14:09.860Z,2.60
2018-06-17T13:16:38.064Z,2.10
2018-06-17T13:19:06.580Z,2.53
2018-06-17T13:21:34.772Z,2.50
2018-06-17T13:24:02.945Z,2.20
2018-06-17T13:26:31.123Z,2.80
2018-06-17T13:28:59.310Z,3.33
2018-06-17T13:31:27.496Z,2.13
2018-06-17T13:33:55.676Z,2.77
2018-06-17T13:36:23.844Z,2.40
2018-06-17T13:38:52.045Z,2.73
2018-06-17T13:41:20.205Z,1.93
2018-06-17T13:43:48.420Z,2.27
2018-06-17T13:46:16.628Z,3.97
2018-06-17T13:48:44.819Z,2.40
2018-06-17T13:51:13.008Z,3.50
2018-06-17T13:53:41.196Z,3.40
2018-06-17T13:56:09.390Z,3.10
2018-06-17T13:58:37.562Z,2.20
2018-06-17T14:01:05.728Z,2.17
2018-06-17T14:03:33.909Z,2.40
2018-06-17T14:06:08.513Z,2.57
2018-06-17T14:08:36.708Z,2.03
2018-06-17T14:11:04.906Z,2.30
2018-06-17T14:13:33.132Z,3.17
2018-06-17T14:16:01.269Z,2.83
2018-06-17T14:18:29.195Z,2.67
2018-06-17T14:20:57.389Z,2.70
2018-06-17T14:23:25.556Z,3.00
2018-06-17T14:25:53.723Z,2.93
2018-06-17T14:28:21.927Z,2.67
2018-06-17T14:30:49.856Z,2.67
2018-06-17T14:33:18.072Z,2.07
2018-06-17T14:35:46.292Z,2.40
2018-06-17T14:38:14.439Z,2.30
2018-06-17T14:40:47.946Z,2.93
2018-06-17T14:43:21.684Z,2.60
2018-06-17T14:45:55.379Z,3.07
2018-06-17T14:48:29.038Z,2.43
2018-06-17T14:53:05.136Z,1.97
2018-06-17T14:55:33.471Z,2.13
2018-06-17T14:58:01.968Z,2.13
2018-06-17T15:00:30.163Z,2.57
2018-06-17T15:02:58.344Z,2.93
2018-06-17T15:05:26.520Z,3.80
2018-06-17T15:07:54.726Z,3.23
2018-06-17T15:10:22.889Z,2.63
2018-06-17T15:12:51.093Z,3.13
2018-06-17T15:15:19.300Z,3.43
2018-06-17T15:17:47.450Z,3.40
2018-06-17T15:20:15.676Z,3.37
2018-06-17T15:22:43.888Z,2.90
2018-06-17T15:25:11.818Z,3.60
2018-06-17T15:27:40.066Z,4.07
2018-06-17T15:30:08.279Z,3.80
2018-06-17T15:32:41.950Z,4.53
2018-06-17T15:35:15.663Z,3.87
2018-06-17T15:37:49.368Z,3.80
2018-06-17T15:40:17.552Z,3.17
2018-06-17T15:42:45.751Z,4.13
2018-06-17T15:45:13.923Z,3.77
2018-06-17T15:47:42.119Z,3.90
2018-06-17T15:50:10.304Z,5.17
2018-06-17T15:52:38.494Z,4.10
2018-06-17T15:55:06.727Z,5.37
2018-06-17T15:57:34.900Z,4.23
2018-06-17T16:00:03.064Z,3.30
2018-06-17T16:02:31.249Z,3.90
2018-06-17T16:04:59.411Z,4.53
2018-06-17T16:07:27.598Z,3.63
2018-06-17T16:09:55.769Z,3.63
2018-06-17T16:12:29.263Z,4.10
2018-06-17T16:15:02.792Z,4.20
2018-06-17T16:17:36.473Z,4.37
2018-06-17T16:20:09.943Z,2.93
2018-06-17T16:27:15.216Z,2.00
2018-06-17T16:29:43.412Z,2.30
2018-06-17T16:32:11.363Z,2.07
2018-06-17T16:34:39.552Z,2.30
2018-06-17T16:37:07.720Z,2.13
2018-06-17T16:39:35.900Z,2.50
2018-06-17T16:42:04.084Z,2.20
2018-06-17T16:44:32.299Z,2.90
2018-06-17T16:47:00.484Z,2.10
2018-06-17T16:49:28.655Z,2.53
2018-06-17T16:52:02.368Z,3.30
2018-06-17T16:54:36.228Z,2.37
2018-06-17T16:57:09.995Z,2.67
2018-06-17T16:59:43.609Z,2.30
2018-06-17T17:02:18.600Z,2.63
2018-06-17T17:04:46.831Z,2.23
2018-06-17T17:07:15.053Z,2.80
2018-06-17T17:09:43.226Z,1.83
2018-06-17T17:12:11.415Z,2.30
2018-06-17T17:14:39.605Z,2.43
2018-06-17T17:17:07.826Z,2.17
2018-06-17T17:19:36.151Z,2.03
2018-06-17T17:22:04.325Z,2.93
2018-06-17T17:24:32.508Z,2.40
2018-06-17T17:27:00.696Z,2.13
2018-06-17T17:29:28.650Z,2.57
2018-06-17T17:32:02.425Z,3.37
2018-06-17T17:34:36.038Z,2.60
2018-06-17T17:37:09.731Z,4.03
2018-06-17T17:39:43.141Z,2.80
2018-06-17T17:42:11.343Z,2.30
2018-06-17T17:44:45.021Z,2.30
2018-06-17T17:47:18.720Z,2.87
2018-06-17T17:49:46.904Z,2.67
2018-06-17T17:52:15.159Z,3.07
2018-06-17T17:54:43.429Z,2.70
2018-06-17T17:57:11.609Z,2.70
2018-06-17T17:59:39.791Z,2.73
2018-06-17T18:02:07.991Z,2.60
2018-06-17T18:04:35.955Z,2.73
2018-06-17T18:07:04.186Z,3.00
2018-06-17T18:09:32.955Z,2.30
2018-06-17T18:12:01.140Z,2.57
2018-06-17T18:14:29.640Z,2.70
2018-06-17T18:16:57.808Z,2.60
2018-06-17T18:19:26.264Z,2.83
2018-06-17T18:21:54.466Z,3.93
2018-06-17T18:24:22.717Z,2.50
2018-06-17T18:26:56.140Z,3.10
2018-06-17T18:29:29.772Z,2.77
2018-06-17T18:32:03.367Z,2.57
2018-06-17T18:34:37.140Z,2.80
2018-06-17T18:37:05.560Z,3.13
2018-06-17T18:39:33.772Z,3.07
2018-06-17T18:42:01.962Z,3.37
2018-06-17T18:44:30.127Z,3.20
2018-06-17T18:46:58.319Z,3.50
2018-06-17T18:49:26.491Z,2.60
2018-06-17T18:51:54.688Z,2.20
2018-06-17T18:54:22.896Z,2.97
2018-06-17T18:56:52.480Z,2.40
2018-06-17T18:59:20.644Z,2.83
2018-06-17T19:01:48.894Z,2.67
2018-06-17T19:04:17.116Z,2.30
2018-06-17T19:06:45.331Z,2.47
2018-06-17T19:09:18.717Z,3.03
2018-06-17T19:11:52.169Z,2.20
2018-06-17T19:14:25.617Z,2.90
2018-06-17T19:16:59.448Z,3.80
2018-06-17T19:19:27.631Z,3.37
2018-06-17T19:21:55.822Z,2.70
2018-06-17T19:24:24.025Z,2.90
2018-06-17T19:26:52.212Z,3.17
2018-06-17T19:29:20.532Z,3.70
2018-06-17T19:31:48.750Z,3.60
2018-06-17T19:34:16.967Z,3.47
2018-06-17T19:36:45.151Z,3.27
2018-06-17T19:39:13.319Z,3.43
2018-06-17T19:41:41.548Z,4.20
2018-06-17T19:44:09.729Z,5.07
2018-06-17T19:46:38.033Z,3.40
2018-06-17T19:49:06.597Z,4.00
2018-06-17T19:51:40.208Z,3.37
2018-06-17T19:54:13.812Z,3.83
2018-06-17T19:56:47.188Z,3.43
2018-06-17T19:59:20.921Z,3.90
2018-06-17T20:01:49.108Z,2.80
2018-06-17T20:04:18.279Z,3.30
2018-06-17T20:06:46.461Z,3.73
2018-06-17T20:09:14.660Z,2.57
2018-06-17T20:11:42.907Z,2.77
2018-06-17T20:14:11.093Z,1.97
2018-06-17T20:16:40.055Z,2.83
2018-06-17T20:19:08.229Z,2.83
2018-06-17T20:21:36.417Z,3.00
2018-06-17T20:24:04.594Z,3.13
2018-06-17T20:26:32.768Z,2.97
2018-06-17T20:29:00.969Z,2.13
2018-06-17T20:31:29.145Z,2.67
2018-06-17T20:35:03.454Z,3.17
2018-06-17T20:37:36.904Z,2.50
2018-06-17T20:40:10.472Z,2.80
2018-06-17T20:42:44.211Z,2.57
2018-06-17T20:45:12.428Z,2.20
2018-06-17T20:47:40.621Z,2.80
2018-06-17T20:50:08.932Z,2.80
2018-06-17T20:52:37.208Z,3.30
2018-06-17T20:55:05.515Z,2.43
2018-06-17T20:57:33.699Z,2.33
2018-06-17T21:00:01.871Z,2.63
2018-06-17T21:02:30.073Z,2.03
2018-06-17T21:04:58.237Z,3.20
2018-06-17T21:07:26.393Z,2.40
2018-06-17T21:09:54.579Z,2.53
2018-06-17T21:12:22.744Z,2.20
2018-06-17T21:14:50.923Z,2.60
2018-06-17T21:17:19.164Z,2.00
2018-06-17T21:20:56.310Z,2.90
2018-06-17T21:23:29.864Z,2.30
2018-06-17T21:27:06.260Z,2.80
2018-06-17T21:29:34.443Z,3.30
2018-06-17T21:32:02.391Z,2.43
2018-06-17T21:34:30.603Z,3.10
2018-06-17T21:36:58.804Z,2.40
2018-06-17T21:39:26.992Z,3.47
2018-06-17T21:41:55.164Z,2.70
2018-06-17T21:44:23.346Z,2.50
2018-06-17T21:46:51.527Z,3.00
2018-06-17T21:49:19.782Z,1.90
2018-06-17T21:51:47.936Z,2.80
2018-06-17T21:54:16.243Z,3.17
2018-06-17T21:56:44.469Z,2.47
2018-06-17T21:59:12.679Z,2.60
2018-06-17T22:01:40.855Z,2.47
2018-06-17T22:04:14.570Z,2.87
2018-06-17T22:06:42.760Z,3.43
2018-06-17T22:09:16.448Z,3.13
2018-06-17T22:11:50.065Z,3.07
2018-06-17T22:15:24.152Z,2.93
2018-06-17T22:17:53.320Z,2.87
2018-06-17T22:20:21.801Z,2.60
2018-06-17T22:22:49.992Z,2.73
2018-06-17T22:25:18.777Z,2.90
2018-06-17T22:27:46.983Z,3.70
2018-06-17T22:30:15.212Z,2.63
2018-06-17T22:32:43.447Z,2.90
2018-06-17T22:35:11.638Z,2.80
2018-06-17T22:37:39.822Z,2.60
2018-06-17T22:40:07.792Z,2.63
2018-06-17T22:42:36.100Z,2.80
2018-06-17T22:45:04.411Z,2.33
2018-06-17T22:47:38.061Z,2.27
2018-06-17T22:50:06.544Z,2.40
2018-06-17T22:52:46.248Z,3.50
2018-06-17T22:55:14.516Z,3.10
2018-06-17T22:57:48.083Z,3.27
2018-06-17T23:00:21.783Z,3.90
2018-06-17T23:02:55.484Z,3.90
2018-06-17T23:05:29.025Z,3.17
2018-06-17T23:08:02.712Z,3.10
2018-06-17T23:10:30.911Z,2.80
2018-06-17T23:12:59.077Z,3.20
2018-06-17T23:15:27.244Z,3.60
2018-06-17T23:17:55.420Z,2.80
2018-06-17T23:20:23.583Z,3.30
2018-06-17T23:22:51.784Z,3.10
2018-06-17T23:25:19.719Z,3.70
2018-06-17T23:27:47.916Z,4.40
2018-06-17T23:30:16.111Z,3.37
2018-06-17T23:32:45.220Z,4.50
2018-06-17T23:35:13.386Z,3.20
2018-06-17T23:37:41.565Z,4.10
2018-06-17T23:40:09.719Z,4.80
2018-06-17T23:42:37.680Z,4.40
2018-06-17T23:45:05.837Z,4.03
2018-06-17T23:47:39.416Z,4.80
2018-06-17T23:50:13.012Z,4.10
2018-06-17T23:52:46.660Z,5.00
2018-06-17T23:55:20.244Z,5.57
2018-06-17T23:57:48.448Z,5.50
